createdAt,value
2023-03-25T00:00:19.443Z,2.38
2023-03-25T00:02:49.746Z,1.77
2023-03-25T00:05:20.493Z,1.80
2023-03-25T00:07:50.799Z,1.77
2023-03-25T00:10:18.367Z,1.95
2023-03-25T00:12:45.691Z,2.38
2023-03-25T00:15:13.634Z,2.17
2023-03-25T00:17:41.006Z,2.42
2023-03-25T00:20:10.074Z,2.90
2023-03-25T00:22:41.458Z,2.65
2023-03-25T00:25:17.854Z,3.03
2023-03-25T00:27:47.182Z,3.58
2023-03-25T00:30:16.130Z,2.85
2023-03-25T00:32:50.459Z,3.15
2023-03-25T00:35:19.870Z,3.42
2023-03-25T00:38:00.191Z,3.03
2023-03-25T00:40:30.869Z,3.20
2023-03-25T00:42:58.190Z,3.00
2023-03-25T00:45:25.488Z,2.80
2023-03-25T00:47:52.883Z,2.83
2023-03-25T00:50:21.580Z,2.92
2023-03-25T00:52:49.554Z,2.22
2023-03-25T00:55:17.416Z,2.60
2023-03-25T00:57:44.731Z,3.05
2023-03-25T01:00:16.131Z,3.00
2023-03-25T01:02:45.877Z,2.70
2023-03-25T01:05:13.580Z,2.70
2023-03-25T01:07:42.120Z,2.90
2023-03-25T01:10:10.215Z,2.92
2023-03-25T01:12:38.634Z,2.50
2023-03-25T01:15:06.594Z,2.80
2023-03-25T01:17:34.080Z,2.65
2023-03-25T01:20:06.171Z,3.03
2023-03-25T01:22:33.582Z,2.85
2023-03-25T01:25:01.419Z,2.35
2023-03-25T01:27:31.174Z,2.20
2023-03-25T01:29:58.507Z,2.47
2023-03-25T01:32:26.162Z,2.17
2023-03-25T01:34:53.479Z,2.13
2023-03-25T01:37:22.909Z,2.58
2023-03-25T01:39:50.425Z,2.20
2023-03-25T01:42:17.749Z,2.40
2023-03-25T01:44:45.192Z,1.90
2023-03-25T01:47:12.909Z,1.70
2023-03-25T01:49:46.865Z,1.85
2023-03-25T01:52:21.556Z,1.98
2023-03-25T01:54:53.424Z,1.90
2023-03-25T01:57:22.420Z,1.75
2023-03-25T01:59:52.075Z,2.00
2023-03-25T02:02:20.679Z,2.20
2023-03-25T02:04:59.285Z,1.80
2023-03-25T02:07:31.131Z,1.83
2023-03-25T02:10:02.520Z,1.65
2023-03-25T02:12:29.892Z,1.92
2023-03-25T02:15:00.822Z,1.70
2023-03-25T02:17:42.952Z,1.52
2023-03-25T02:23:09.801Z,1.75
2023-03-25T02:25:58.831Z,1.75
2023-03-25T02:28:37.925Z,1.63
2023-03-25T02:31:33.911Z,1.52
2023-03-25T02:34:38.221Z,1.60
2023-03-25T02:37:54.061Z,1.80
2023-03-25T02:40:36.635Z,1.80
2023-03-25T02:43:44.086Z,1.30
2023-03-25T02:46:17.343Z,1.60
2023-03-25T02:49:08.337Z,1.70
2023-03-25T02:51:46.142Z,1.52
2023-03-25T02:54:16.293Z,1.48
2023-03-25T02:56:46.199Z,1.75
2023-03-25T02:59:16.940Z,1.40
2023-03-25T03:01:45.771Z,1.65
2023-03-25T03:04:13.281Z,1.35
2023-03-25T03:06:44.594Z,1.23
2023-03-25T03:09:52.388Z,1.60
2023-03-25T03:12:52.447Z,1.80
2023-03-25T03:15:37.718Z,1.58
2023-03-25T03:18:14.526Z,1.65
2023-03-25T03:20:50.257Z,1.45
2023-03-25T03:23:28.864Z,1.77
2023-03-25T03:26:22.568Z,1.55
2023-03-25T03:29:04.142Z,1.52
2023-03-25T03:31:56.227Z,2.03
2023-03-25T03:34:34.764Z,1.73
2023-03-25T03:37:04.118Z,1.80
2023-03-25T03:39:35.636Z,1.80
2023-03-25T03:42:09.770Z,1.60
2023-03-25T03:44:40.710Z,1.80
2023-03-25T03:47:12.176Z,1.98
2023-03-25T03:49:43.717Z,1.58
2023-03-25T03:52:17.216Z,1.73
2023-03-25T03:54:59.231Z,1.85
2023-03-25T03:57:37.559Z,1.95
2023-03-25T04:00:07.712Z,1.52
2023-03-25T04:02:47.942Z,1.27
2023-03-25T04:05:17.687Z,1.65
2023-03-25T04:07:55.070Z,1.80
2023-03-25T04:10:34.923Z,2.03
2023-03-25T04:13:06.992Z,1.50
2023-03-25T04:15:34.367Z,1.55
2023-03-25T04:18:03.700Z,1.30
2023-03-25T04:20:36.898Z,1.42
2023-03-25T04:23:09.896Z,1.45
2023-03-25T04:25:37.293Z,1.48
2023-03-25T04:28:04.829Z,1.40
2023-03-25T04:30:32.205Z,1.30
2023-03-25T04:33:00.827Z,1.40
2023-03-25T04:35:28.238Z,1.20
2023-03-25T04:37:57.747Z,1.40
2023-03-25T04:40:26.107Z,1.20
2023-03-25T04:42:53.442Z,1.40
2023-03-25T04:45:21.778Z,1.52
2023-03-25T04:47:50.168Z,1.20
2023-03-25T04:50:25.272Z,1.40
2023-03-25T04:52:53.622Z,1.27
2023-03-25T04:55:21.662Z,1.42
2023-03-25T04:57:50.971Z,1.38
2023-03-25T05:00:22.372Z,1.33
2023-03-25T05:02:51.923Z,1.30
2023-03-25T05:05:21.398Z,1.30
2023-03-25T05:07:50.802Z,1.50
2023-03-25T05:10:20.854Z,1.20
2023-03-25T05:12:49.089Z,1.38
2023-03-25T05:15:17.614Z,1.52
2023-03-25T05:17:45.521Z,1.30
2023-03-25T05:20:14.661Z,1.40
2023-03-25T05:22:42.164Z,1.45
2023-03-25T05:25:10.765Z,1.40
2023-03-25T05:27:39.335Z,1.40
2023-03-25T05:30:07.966Z,1.30
2023-03-25T05:32:35.251Z,1.30
2023-03-25T05:35:05.532Z,1.27
2023-03-25T05:37:32.972Z,1.30
2023-03-25T05:40:00.347Z,1.50
2023-03-25T05:42:27.850Z,1.50
2023-03-25T05:44:55.272Z,1.50
2023-03-25T05:47:24.853Z,1.60
2023-03-25T05:49:54.039Z,1.48
2023-03-25T05:52:24.818Z,1.60
2023-03-25T05:54:52.118Z,1.40
2023-03-25T05:57:19.371Z,1.40
2023-03-25T05:59:48.152Z,1.50
2023-03-25T06:02:17.348Z,1.30
2023-03-25T06:04:46.660Z,1.40
2023-03-25T06:07:20.199Z,1.40
2023-03-25T06:09:48.273Z,1.48
2023-03-25T06:12:20.325Z,1.35
2023-03-25T06:17:19.045Z,1.50
2023-03-25T06:19:46.865Z,1.48
2023-03-25T06:22:14.514Z,1.60
2023-03-25T06:24:42.843Z,1.40
2023-03-25T06:27:16.630Z,1.73
2023-03-25T06:29:44.722Z,1.33
2023-03-25T06:32:14.615Z,1.63
2023-03-25T06:34:44.984Z,1.52
2023-03-25T06:37:12.217Z,1.75
2023-03-25T06:39:39.462Z,1.70
2023-03-25T06:42:15.702Z,1.60
2023-03-25T06:45:05.170Z,1.80
2023-03-25T06:47:42.848Z,1.92
2023-03-25T06:50:10.836Z,1.88
2023-03-25T06:52:38.120Z,1.90
2023-03-25T06:55:05.768Z,1.50
2023-03-25T06:57:32.980Z,2.17
2023-03-25T07:00:00.448Z,2.08
2023-03-25T07:02:27.734Z,1.67
2023-03-25T07:04:55.149Z,1.70
2023-03-25T07:07:22.429Z,1.75
2023-03-25T07:09:55.318Z,1.88
2023-03-25T07:12:23.638Z,2.13
2023-03-25T07:14:55.907Z,2.33
2023-03-25T07:17:24.002Z,2.10
2023-03-25T07:19:51.366Z,1.80
2023-03-25T07:22:18.891Z,2.67
2023-03-25T07:24:46.408Z,2.83
2023-03-25T07:27:14.939Z,2.03
2023-03-25T07:29:49.146Z,1.80
2023-03-25T07:32:16.668Z,2.17
2023-03-25T07:34:44.020Z,2.15
2023-03-25T07:37:11.326Z,1.90
2023-03-25T07:39:38.637Z,1.70
2023-03-25T07:42:06.585Z,1.80
2023-03-25T07:44:53.749Z,1.90
2023-03-25T07:47:21.208Z,1.90
2023-03-25T07:49:50.262Z,1.90
2023-03-25T07:52:17.654Z,1.65
2023-03-25T07:54:45.268Z,2.00
2023-03-25T07:57:13.453Z,1.73
2023-03-25T07:59:40.939Z,1.60
2023-03-25T08:02:13.021Z,2.00
2023-03-25T08:04:40.801Z,1.73
2023-03-25T08:07:08.221Z,2.10
2023-03-25T08:09:35.813Z,1.70
2023-03-25T08:12:03.480Z,1.60
2023-03-25T08:14:30.849Z,2.33
2023-03-25T08:16:58.189Z,2.33
2023-03-25T08:19:25.863Z,2.25
2023-03-25T08:21:53.214Z,2.20
2023-03-25T08:24:21.123Z,2.25
2023-03-25T08:26:49.412Z,2.25
2023-03-25T08:29:18.055Z,2.50
2023-03-25T08:31:47.103Z,2.75
2023-03-25T08:34:14.827Z,2.35
2023-03-25T08:36:42.282Z,2.35
2023-03-25T08:39:12.114Z,2.75
2023-03-25T08:41:39.838Z,2.40
2023-03-25T08:44:07.608Z,2.35
2023-03-25T08:46:34.950Z,2.80
2023-03-25T08:49:02.593Z,2.70
2023-03-25T08:51:29.933Z,2.60
2023-03-25T08:53:57.196Z,2.42
2023-03-25T08:56:24.473Z,3.05
2023-03-25T08:58:51.712Z,2.90
2023-03-25T09:01:19.096Z,2.97
2023-03-25T09:03:47.097Z,2.97
2023-03-25T09:06:14.397Z,2.50
2023-03-25T09:08:41.687Z,2.47
2023-03-25T09:11:09.048Z,3.10
2023-03-25T09:13:36.268Z,3.67
2023-03-25T09:16:03.847Z,2.88
2023-03-25T09:18:32.218Z,3.05
2023-03-25T09:21:00.992Z,3.00
2023-03-25T09:23:31.730Z,3.33
2023-03-25T09:26:07.155Z,2.70
2023-03-25T09:28:34.738Z,2.92
2023-03-25T09:31:02.066Z,2.83
2023-03-25T09:33:29.429Z,2.90
2023-03-25T09:35:56.784Z,2.67
2023-03-25T09:38:24.055Z,3.00
2023-03-25T09:40:51.733Z,3.17
2023-03-25T09:43:54.273Z,3.03
2023-03-25T09:46:21.702Z,2.72
2023-03-25T09:48:50.753Z,2.80
2023-03-25T09:51:24.842Z,3.38
2023-03-25T09:54:08.991Z,2.50
2023-03-25T09:56:42.589Z,2.63
2023-03-25T09:59:23.401Z,2.60
2023-03-25T10:02:22.657Z,2.65
2023-03-25T10:04:52.764Z,3.20
2023-03-25T10:07:25.882Z,2.67
2023-03-25T10:09:58.715Z,2.90
2023-03-25T10:12:51.344Z,2.78
2023-03-25T10:15:54.469Z,2.88
2023-03-25T10:18:41.060Z,2.70
2023-03-25T10:21:15.575Z,2.53
2023-03-25T10:23:55.886Z,2.67
2023-03-25T10:26:33.135Z,2.50
2023-03-25T10:29:08.809Z,2.83
2023-03-25T10:31:43.219Z,2.60
2023-03-25T10:34:23.905Z,2.45
2023-03-25T10:36:58.371Z,2.70
2023-03-25T10:39:34.386Z,2.80
2023-03-25T10:42:14.611Z,2.60
2023-03-25T10:44:41.990Z,2.22
2023-03-25T10:47:15.452Z,2.47
2023-03-25T10:49:44.098Z,2.45
2023-03-25T10:52:11.764Z,2.30
2023-03-25T10:54:47.901Z,2.40
2023-03-25T10:57:26.521Z,2.58
2023-03-25T11:00:06.814Z,2.83
2023-03-25T11:02:34.675Z,2.85
2023-03-25T11:05:06.820Z,2.45
2023-03-25T11:07:39.145Z,2.58
2023-03-25T11:10:15.837Z,2.60
2023-03-25T11:12:48.272Z,2.17
2023-03-25T11:15:20.889Z,2.10
2023-03-25T11:17:56.079Z,2.67
2023-03-25T11:20:35.758Z,2.45
2023-03-25T11:23:07.730Z,3.47
2023-03-25T11:28:23.049Z,4.20
2023-03-25T11:31:14.160Z,3.72
2023-03-25T11:33:43.853Z,2.80
2023-03-25T11:36:16.733Z,2.60
2023-03-25T11:38:51.235Z,2.30
2023-03-25T11:41:18.834Z,2.08
2023-03-25T11:43:49.274Z,2.65
2023-03-25T11:46:18.937Z,2.08
2023-03-25T11:48:46.975Z,1.85
2023-03-25T11:51:21.637Z,2.28
2023-03-25T11:54:18.951Z,1.98
2023-03-25T11:56:50.065Z,2.25
2023-03-25T11:59:23.693Z,1.80
2023-03-25T12:01:59.909Z,1.30
2023-03-25T12:04:27.286Z,1.30
2023-03-25T12:07:00.030Z,1.25
2023-03-25T12:09:30.694Z,1.27
2023-03-25T12:12:09.501Z,1.70
2023-03-25T12:14:55.154Z,1.20
2023-03-25T12:17:27.730Z,1.27
2023-03-25T12:20:12.627Z,1.15
2023-03-25T12:23:18.206Z,1.42
2023-03-25T12:26:15.740Z,1.30
2023-03-25T12:29:01.165Z,1.30
2023-03-25T12:31:42.205Z,1.48
2023-03-25T12:34:49.449Z,1.30
2023-03-25T12:37:56.429Z,1.30
2023-03-25T12:40:32.884Z,1.50
2023-03-25T12:43:04.705Z,1.80
2023-03-25T12:45:32.347Z,1.40
2023-03-25T12:48:08.471Z,1.50
2023-03-25T12:50:44.763Z,1.50
2023-03-25T12:53:45.685Z,2.05
2023-03-25T12:56:29.587Z,1.80
2023-03-25T12:59:00.180Z,1.63
2023-03-25T13:02:01.036Z,1.95
2023-03-25T13:04:58.715Z,1.90
2023-03-25T13:07:31.439Z,1.70
2023-03-25T13:10:18.157Z,1.70
2023-03-25T13:12:48.402Z,1.80
2023-03-25T13:15:27.656Z,1.90
2023-03-25T13:18:04.232Z,1.52
2023-03-25T13:20:37.903Z,1.70
2023-03-25T13:23:08.104Z,1.30
2023-03-25T13:25:44.783Z,1.20
2023-03-25T13:28:16.840Z,1.20
2023-03-25T13:33:32.283Z,1.48
2023-03-25T13:36:10.239Z,1.25
2023-03-25T13:39:00.374Z,1.30
2023-03-25T13:41:39.149Z,1.48
2023-03-25T13:44:29.105Z,1.30
2023-03-25T13:47:31.423Z,1.58
2023-03-25T13:52:46.567Z,2.20
2023-03-25T13:55:27.968Z,1.40
2023-03-25T13:58:01.561Z,1.50
2023-03-25T14:00:53.699Z,1.67
2023-03-25T14:06:38.111Z,2.10
2023-03-25T14:09:44.002Z,4.07
2023-03-25T14:12:24.261Z,7.07
2023-03-25T14:14:58.399Z,6.43
2023-03-25T14:17:28.522Z,4.80
2023-03-25T14:19:59.485Z,4.90
2023-03-25T14:22:29.671Z,4.40
2023-03-25T14:24:57.121Z,3.90
2023-03-25T14:27:35.403Z,2.50
2023-03-25T14:30:18.184Z,1.60
2023-03-25T14:32:46.003Z,1.60
2023-03-25T14:35:34.823Z,1.90
2023-03-25T14:38:08.365Z,1.77
2023-03-25T14:43:26.672Z,2.40
2023-03-25T14:46:18.493Z,2.60
2023-03-25T14:51:44.794Z,2.90
2023-03-25T14:54:29.896Z,3.20
2023-03-25T14:57:23.012Z,2.95
2023-03-25T14:59:56.306Z,3.25
2023-03-25T15:02:33.354Z,2.97
2023-03-25T15:05:12.121Z,2.72
2023-03-25T15:07:54.134Z,2.97
2023-03-25T15:13:15.979Z,2.50
2023-03-25T15:15:46.389Z,2.80
2023-03-25T15:18:36.596Z,2.60
2023-03-25T15:21:08.037Z,2.80
2023-03-25T15:23:59.628Z,3.78
2023-03-25T15:26:45.616Z,2.90
2023-03-25T15:29:34.594Z,2.80
2023-03-25T15:32:31.895Z,2.60
2023-03-25T15:35:17.837Z,2.50
2023-03-25T15:37:55.026Z,2.80
2023-03-25T15:40:59.998Z,2.80
2023-03-25T15:43:50.183Z,2.80
2023-03-25T15:46:45.703Z,2.78
2023-03-25T15:49:27.946Z,2.72
2023-03-25T15:52:23.821Z,2.80
2023-03-25T15:54:56.485Z,3.10
2023-03-25T15:57:32.057Z,3.05
2023-03-25T16:00:14.360Z,2.80
2023-03-25T16:03:04.188Z,3.10
2023-03-25T16:05:36.745Z,3.83
2023-03-25T16:08:34.487Z,3.20
2023-03-25T16:11:15.752Z,2.95
2023-03-25T16:13:43.293Z,3.30
2023-03-25T16:16:13.243Z,3.20
2023-03-25T16:18:42.312Z,3.40
2023-03-25T16:21:10.991Z,3.35
2023-03-25T16:23:39.619Z,3.28
2023-03-25T16:26:07.110Z,3.67
2023-03-25T16:28:39.902Z,3.50
2023-03-25T16:31:14.233Z,3.78
2023-03-25T16:33:43.150Z,3.50
2023-03-25T16:36:17.756Z,3.60
2023-03-25T16:38:45.054Z,3.83
2023-03-25T16:41:18.451Z,3.60
2023-03-25T16:43:50.091Z,3.10
2023-03-25T16:46:21.676Z,3.30
2023-03-25T16:48:52.907Z,3.88
2023-03-25T16:51:29.195Z,3.95
2023-03-25T16:54:00.806Z,3.47
2023-03-25T16:56:33.332Z,3.47
2023-03-25T16:59:28.780Z,2.95
2023-03-25T17:01:58.767Z,3.22
2023-03-25T17:04:42.109Z,3.53
2023-03-25T17:07:40.163Z,3.42
2023-03-25T17:10:21.278Z,3.30
2023-03-25T17:12:57.859Z,3.13
2023-03-25T17:15:27.506Z,3.30
2023-03-25T17:18:01.945Z,3.38
2023-03-25T17:20:41.538Z,3.10
2023-03-25T17:23:41.485Z,3.40
2023-03-25T17:26:11.429Z,3.58
2023-03-25T17:28:58.820Z,3.13
2023-03-25T17:31:41.243Z,3.42
2023-03-25T17:34:21.885Z,3.33
2023-03-25T17:37:00.521Z,3.25
2023-03-25T17:39:33.071Z,3.67
2023-03-25T17:42:06.050Z,3.60
2023-03-25T17:44:33.303Z,4.20
2023-03-25T17:47:00.586Z,5.18
2023-03-25T17:49:28.024Z,5.50
2023-03-25T17:51:55.488Z,4.13
2023-03-25T17:54:22.970Z,4.13
2023-03-25T17:56:50.506Z,4.03
2023-03-25T17:59:23.110Z,3.70
2023-03-25T18:01:51.093Z,3.40
2023-03-25T18:04:21.224Z,3.15
2023-03-25T18:06:49.207Z,3.25
2023-03-25T18:09:24.598Z,3.50
2023-03-25T18:11:56.031Z,3.20
2023-03-25T18:14:24.676Z,4.00
2023-03-25T18:16:52.709Z,3.75
2023-03-25T18:19:25.962Z,3.70
2023-03-25T18:21:54.386Z,3.53
2023-03-25T18:24:22.666Z,3.55
2023-03-25T18:26:50.045Z,3.67
2023-03-25T18:29:25.845Z,3.75
2023-03-25T18:31:53.184Z,4.00
2023-03-25T18:34:23.732Z,4.20
2023-03-25T18:36:52.496Z,3.63
2023-03-25T18:39:27.916Z,3.60
2023-03-25T18:41:58.342Z,3.85
2023-03-25T18:44:32.114Z,3.20
2023-03-25T18:47:02.953Z,3.20
2023-03-25T18:49:34.304Z,3.70
2023-03-25T18:52:10.066Z,3.75
2023-03-25T18:54:41.720Z,4.25
2023-03-25T18:57:13.179Z,3.92
2023-03-25T18:59:41.538Z,3.42
2023-03-25T19:02:09.455Z,3.78
2023-03-25T19:04:36.852Z,4.20
2023-03-25T19:07:04.775Z,3.30
2023-03-25T19:09:32.193Z,3.70
2023-03-25T19:11:59.380Z,3.70
2023-03-25T19:14:26.723Z,4.10
2023-03-25T19:17:03.718Z,4.13
2023-03-25T19:19:31.855Z,3.40
2023-03-25T19:21:59.194Z,3.53
2023-03-25T19:24:27.674Z,3.58
2023-03-25T19:26:55.249Z,3.63
2023-03-25T19:29:22.608Z,3.80
2023-03-25T19:31:50.014Z,4.50
2023-03-25T19:34:18.463Z,4.43
2023-03-25T19:36:46.940Z,3.53
2023-03-25T19:39:14.240Z,3.38
2023-03-25T19:41:42.923Z,4.00
2023-03-25T19:44:10.418Z,3.88
2023-03-25T19:46:37.906Z,3.40
2023-03-25T19:49:05.479Z,3.22
2023-03-25T19:51:32.703Z,3.20
2023-03-25T19:53:59.916Z,3.38
2023-03-25T19:56:27.142Z,3.50
2023-03-25T19:58:54.944Z,4.45
2023-03-25T20:01:22.849Z,2.90
2023-03-25T20:03:51.457Z,3.10
2023-03-25T20:06:19.323Z,2.78
2023-03-25T20:08:46.714Z,3.00
2023-03-25T20:11:14.086Z,2.83
2023-03-25T20:13:41.813Z,3.22
2023-03-25T20:16:09.706Z,2.67
2023-03-25T20:18:39.034Z,2.40
2023-03-25T20:21:09.712Z,2.00
2023-03-25T20:23:37.398Z,1.80
2023-03-25T20:26:05.859Z,1.90
2023-03-25T20:28:33.139Z,1.90
2023-03-25T20:31:00.953Z,1.90
2023-03-25T20:33:28.374Z,2.30
2023-03-25T20:35:55.942Z,2.22
2023-03-25T20:38:23.741Z,2.10
2023-03-25T20:40:54.658Z,2.47
2023-03-25T20:43:22.547Z,2.72
2023-03-25T20:45:55.746Z,2.30
2023-03-25T20:48:25.527Z,2.00
2023-03-25T20:51:05.491Z,2.20
2023-03-25T20:53:33.356Z,2.25
2023-03-25T20:56:01.359Z,2.28
2023-03-25T20:58:29.825Z,2.13
2023-03-25T21:00:59.106Z,2.15
2023-03-25T21:03:27.506Z,1.90
2023-03-25T21:06:10.285Z,2.05
2023-03-25T21:08:41.398Z,1.73
2023-03-25T21:11:09.294Z,1.52
2023-03-25T21:13:36.682Z,1.50
2023-03-25T21:16:04.699Z,1.67
2023-03-25T21:18:32.411Z,1.40
2023-03-25T21:21:02.141Z,1.67
2023-03-25T21:23:32.008Z,2.00
2023-03-25T21:26:01.269Z,1.70
2023-03-25T21:28:30.314Z,1.70
2023-03-25T21:31:06.645Z,1.90
2023-03-25T21:33:37.419Z,1.70
2023-03-25T21:36:07.164Z,1.90
2023-03-25T21:38:35.794Z,1.60
2023-03-25T21:41:05.865Z,1.90
2023-03-25T21:43:35.481Z,1.60
2023-03-25T21:46:05.541Z,1.77
2023-03-25T21:48:38.253Z,1.80
2023-03-25T21:51:12.261Z,1.50
2023-03-25T21:53:44.014Z,1.90
2023-03-25T21:56:14.809Z,1.70
2023-03-25T21:58:42.185Z,1.90
2023-03-25T22:01:13.880Z,1.85
2023-03-25T22:03:45.507Z,1.80
2023-03-25T22:06:19.405Z,1.75
2023-03-25T22:08:47.492Z,2.25
2023-03-25T22:11:19.076Z,1.80
2023-03-25T22:13:47.254Z,2.05
2023-03-25T22:16:16.490Z,1.90
2023-03-25T22:18:44.459Z,1.77
2023-03-25T22:21:24.068Z,1.60
2023-03-25T22:23:54.753Z,1.70
2023-03-25T22:26:23.322Z,1.63
2023-03-25T22:28:54.590Z,2.00
2023-03-25T22:31:31.041Z,1.85
2023-03-25T22:34:11.089Z,2.10
2023-03-25T22:36:41.352Z,1.90
2023-03-25T22:39:09.816Z,1.45
2023-03-25T22:41:37.948Z,2.13
2023-03-25T22:44:05.560Z,2.30
2023-03-25T22:46:33.998Z,1.60
2023-03-25T22:49:01.321Z,2.00
2023-03-25T22:51:28.644Z,1.90
2023-03-25T22:53:56.058Z,1.90
2023-03-25T22:56:25.900Z,1.80
2023-03-25T22:58:54.049Z,1.90
2023-03-25T23:01:24.147Z,1.58
2023-03-25T23:03:52.700Z,2.03
2023-03-25T23:06:21.474Z,1.85
2023-03-25T23:08:49.135Z,1.60
2023-03-25T23:11:21.666Z,1.88
2023-03-25T23:13:52.222Z,1.65
2023-03-25T23:16:22.963Z,2.10
2023-03-25T23:18:51.307Z,1.92
2023-03-25T23:21:21.969Z,2.08
2023-03-25T23:23:53.414Z,1.75
2023-03-25T23:26:25.004Z,1.63
2023-03-25T23:28:53.727Z,1.67
2023-03-25T23:31:28.204Z,1.90
2023-03-25T23:33:57.978Z,1.80
2023-03-25T23:36:28.334Z,1.80
2023-03-25T23:38:55.838Z,1.92
2023-03-25T23:41:23.636Z,2.20
2023-03-25T23:43:52.241Z,1.67
2023-03-25T23:46:21.393Z,1.75
2023-03-25T23:48:49.060Z,2.10
2023-03-25T23:51:22.619Z,2.60
2023-03-25T23:53:51.261Z,1.90
2023-03-25T23:56:20.895Z,1.60
2023-03-25T23:58:48.395Z,2.50
